createdAt,value
2018-12-31T00:02:23.836Z,8.10
2018-12-31T00:04:53.333Z,8.20
2018-12-31T00:07:24.797Z,8.20
2018-12-31T00:09:54.294Z,8.20
2018-12-31T00:12:24.722Z,8.20
2018-12-31T00:14:54.107Z,8.20
2018-12-31T00:17:23.521Z,8.20
2018-12-31T00:19:58.945Z,8.20
2018-12-31T00:22:28.402Z,8.20
2018-12-31T00:25:12.333Z,8.20
2018-12-31T00:27:43.736Z,8.30
2018-12-31T00:30:14.174Z,8.30
2018-12-31T00:32:43.636Z,8.30
2018-12-31T00:35:13.152Z,8.30
2018-12-31T00:37:42.622Z,8.30
2018-12-31T00:40:12.085Z,8.30
2018-12-31T00:42:41.557Z,8.30
2018-12-31T00:45:11.020Z,8.30
2018-12-31T00:47:40.493Z,8.40
2018-12-31T00:50:10.969Z,8.30
2018-12-31T00:52:40.500Z,8.40
2018-12-31T00:55:16.262Z,8.30
2018-12-31T00:57:48.820Z,8.30
2018-12-31T01:00:18.295Z,8.40
2018-12-31T01:02:52.760Z,8.40
2018-12-31T01:05:22.218Z,8.40
2018-12-31T01:07:54.966Z,8.40
2018-12-31T01:10:24.407Z,8.40
2018-12-31T01:12:53.918Z,8.40
2018-12-31T01:15:30.193Z,8.40
2018-12-31T01:17:59.697Z,8.40
2018-12-31T01:20:29.184Z,8.40
2018-12-31T01:23:01.724Z,8.50
2018-12-31T01:25:31.245Z,8.40
2018-12-31T01:28:00.729Z,8.50
2018-12-31T01:30:38.272Z,8.50
2018-12-31T01:33:07.883Z,8.50
2018-12-31T01:35:37.608Z,8.50
2018-12-31T01:38:07.252Z,8.50
2018-12-31T01:40:37.735Z,8.50
2018-12-31T01:43:17.305Z,8.50
2018-12-31T01:45:46.765Z,8.50
2018-12-31T01:48:16.176Z,8.50
2018-12-31T01:50:45.671Z,8.50
2018-12-31T01:53:23.323Z,8.50
2018-12-31T01:55:52.796Z,8.50
2018-12-31T01:58:29.048Z,8.50
2018-12-31T02:00:58.480Z,8.50
2018-12-31T02:03:27.992Z,8.50
2018-12-31T02:05:59.471Z,8.50
2018-12-31T02:08:37.817Z,8.50
2018-12-31T02:11:08.301Z,8.60
2018-12-31T02:13:39.692Z,8.60
2018-12-31T02:16:11.225Z,8.60
2018-12-31T02:18:41.712Z,8.60
2018-12-31T02:21:11.392Z,8.60
2018-12-31T02:23:40.818Z,8.60
2018-12-31T02:26:11.382Z,8.60
2018-12-31T02:28:41.825Z,8.60
2018-12-31T02:31:12.348Z,8.60
2018-12-31T02:33:43.856Z,8.60
2018-12-31T02:36:28.534Z,8.60
2018-12-31T02:38:59.081Z,8.60
2018-12-31T02:41:28.507Z,8.60
2018-12-31T02:44:07.197Z,8.50
2018-12-31T02:46:36.603Z,8.50
2018-12-31T02:49:06.140Z,8.50
2018-12-31T02:51:37.600Z,8.50
2018-12-31T02:54:08.049Z,8.60
2018-12-31T02:56:39.519Z,8.60
2018-12-31T02:59:09.036Z,8.60
2018-12-31T03:01:38.508Z,8.60
2018-12-31T03:04:09.797Z,8.60
2018-12-31T03:06:39.238Z,8.60
2018-12-31T03:09:09.784Z,8.60
2018-12-31T03:11:45.488Z,8.60
2018-12-31T03:14:14.921Z,8.60
2018-12-31T03:16:44.428Z,8.60
2018-12-31T03:19:18.993Z,8.60
2018-12-31T03:21:48.474Z,8.60
2018-12-31T03:24:25.837Z,8.60
2018-12-31T03:26:55.305Z,8.60
2018-12-31T03:29:24.690Z,8.60
2018-12-31T03:31:54.110Z,8.60
2018-12-31T03:34:25.645Z,8.60
2018-12-31T03:36:57.224Z,8.60
2018-12-31T03:39:28.705Z,8.60
2018-12-31T03:41:58.093Z,8.60
2018-12-31T03:44:27.661Z,8.60
2018-12-31T03:46:57.068Z,8.60
2018-12-31T03:49:26.534Z,8.60
2018-12-31T03:51:56.015Z,8.60
2018-12-31T03:54:27.506Z,8.60
2018-12-31T03:56:57.006Z,8.60
2018-12-31T03:59:26.506Z,8.60
2018-12-31T04:01:56.982Z,8.60
2018-12-31T04:04:35.417Z,8.60
2018-12-31T04:07:04.937Z,8.60
2018-12-31T04:09:35.106Z,8.60
2018-12-31T04:12:05.749Z,8.60
2018-12-31T04:14:35.177Z,8.60
2018-12-31T04:17:04.623Z,8.60
2018-12-31T04:19:34.183Z,8.60
2018-12-31T04:22:06.072Z,8.60
2018-12-31T04:24:39.650Z,8.60
2018-12-31T04:27:09.195Z,8.70
2018-12-31T04:29:39.698Z,8.70
2018-12-31T04:32:09.247Z,8.70
2018-12-31T04:35:00.203Z,8.70
2018-12-31T04:37:30.688Z,8.70
2018-12-31T04:40:02.208Z,8.70
2018-12-31T04:42:31.626Z,8.70
2018-12-31T04:45:03.140Z,8.70
2018-12-31T04:47:32.632Z,8.70
2018-12-31T04:50:04.084Z,8.70
2018-12-31T04:52:39.335Z,8.70
2018-12-31T04:55:08.773Z,8.70
2018-12-31T04:57:40.264Z,8.70
2018-12-31T05:00:11.720Z,8.70
2018-12-31T05:02:47.067Z,8.70
2018-12-31T05:05:21.602Z,8.70
2018-12-31T05:07:51.095Z,8.70
2018-12-31T05:10:21.548Z,8.70
2018-12-31T05:12:57.080Z,8.70
2018-12-31T05:15:30.677Z,8.70
2018-12-31T05:18:15.216Z,8.70
2018-12-31T05:20:44.630Z,8.70
2018-12-31T05:23:23.024Z,8.80
2018-12-31T05:25:54.496Z,8.80
2018-12-31T05:28:24.012Z,8.80
2018-12-31T05:30:53.612Z,8.80
2018-12-31T05:33:25.298Z,8.80
2018-12-31T05:35:54.797Z,8.80
2018-12-31T05:38:27.291Z,8.80
2018-12-31T05:40:57.786Z,8.80
2018-12-31T05:43:27.297Z,8.80
2018-12-31T05:45:57.802Z,8.80
2018-12-31T05:48:27.357Z,8.80
2018-12-31T05:50:56.891Z,8.80
2018-12-31T05:53:26.394Z,8.80
2018-12-31T05:55:57.886Z,8.80
2018-12-31T05:58:27.355Z,8.80
2018-12-31T06:00:57.787Z,8.80
2018-12-31T06:03:29.254Z,8.80
2018-12-31T06:05:58.774Z,8.80
2018-12-31T06:08:28.282Z,8.90
2018-12-31T06:10:57.812Z,8.90
2018-12-31T06:13:29.460Z,8.90
2018-12-31T06:16:04.943Z,8.90
2018-12-31T06:18:35.462Z,8.90
2018-12-31T06:21:05.931Z,8.90
2018-12-31T06:23:35.447Z,8.90
2018-12-31T06:26:10.831Z,8.90
2018-12-31T06:28:41.072Z,8.90
2018-12-31T06:31:10.584Z,8.90
2018-12-31T06:33:40.032Z,8.90
2018-12-31T06:36:09.585Z,8.90
2018-12-31T06:38:39.122Z,8.90
2018-12-31T06:41:08.679Z,8.90
2018-12-31T06:43:38.138Z,9.00
2018-12-31T06:46:13.636Z,9.00
2018-12-31T06:48:45.290Z,9.00
2018-12-31T06:51:21.528Z,9.00
2018-12-31T06:53:52.008Z,9.00
2018-12-31T06:56:30.752Z,9.00
2018-12-31T06:59:01.249Z,9.00
2018-12-31T07:01:30.798Z,9.00
2018-12-31T07:04:00.296Z,9.00
2018-12-31T07:06:37.918Z,9.10
2018-12-31T07:09:07.809Z,9.10
2018-12-31T07:11:37.383Z,9.10
2018-12-31T07:14:08.902Z,9.10
2018-12-31T07:16:40.384Z,9.10
2018-12-31T07:19:12.952Z,9.10
2018-12-31T07:21:42.404Z,9.10
2018-12-31T07:24:11.884Z,9.10
2018-12-31T07:26:42.361Z,9.10
2018-12-31T07:29:12.899Z,9.10
2018-12-31T07:31:42.371Z,9.20
2018-12-31T07:34:11.939Z,9.10
2018-12-31T07:36:41.477Z,9.10
2018-12-31T07:39:13.988Z,9.10
2018-12-31T07:41:54.480Z,9.10
2018-12-31T07:44:23.925Z,9.10
2018-12-31T07:47:01.485Z,9.10
2018-12-31T07:49:30.901Z,9.10
2018-12-31T07:52:03.422Z,9.10
2018-12-31T07:54:32.922Z,9.10
2018-12-31T07:57:05.630Z,9.10
2018-12-31T07:59:35.151Z,9.10
2018-12-31T08:02:06.894Z,9.10
2018-12-31T08:04:36.317Z,9.10
2018-12-31T08:07:06.817Z,9.10
2018-12-31T08:09:36.367Z,9.10
2018-12-31T08:12:05.778Z,9.10
2018-12-31T08:14:36.289Z,9.10
2018-12-31T08:17:05.801Z,9.10
2018-12-31T08:19:35.301Z,9.10
2018-12-31T08:22:04.787Z,9.10
2018-12-31T08:24:37.652Z,9.10
2018-12-31T08:27:07.284Z,9.10
2018-12-31T08:29:37.936Z,9.10
2018-12-31T08:32:07.457Z,9.10
2018-12-31T08:34:37.945Z,9.10
2018-12-31T08:37:09.403Z,9.10
2018-12-31T08:39:38.940Z,9.10
2018-12-31T08:42:08.475Z,9.10
2018-12-31T08:44:38.020Z,9.10
2018-12-31T08:47:08.642Z,9.10
2018-12-31T08:49:38.120Z,9.00
2018-12-31T08:52:09.688Z,9.10
2018-12-31T08:54:40.269Z,9.10
2018-12-31T08:57:10.758Z,9.00
2018-12-31T08:59:40.343Z,9.00
2018-12-31T09:02:09.787Z,9.00
2018-12-31T09:04:39.339Z,9.00
2018-12-31T09:07:11.455Z,9.00
2018-12-31T09:09:43.542Z,9.00
2018-12-31T09:12:20.140Z,9.00
2018-12-31T09:14:50.979Z,9.10
2018-12-31T09:17:23.112Z,9.10
2018-12-31T09:19:54.047Z,9.10
2018-12-31T09:22:25.668Z,9.10
2018-12-31T09:25:00.364Z,9.10
2018-12-31T09:27:51.970Z,9.00
2018-12-31T09:30:22.336Z,9.10
2018-12-31T09:32:53.211Z,9.10
2018-12-31T09:35:23.719Z,9.10
2018-12-31T09:37:53.290Z,9.10
2018-12-31T09:40:23.771Z,9.10
2018-12-31T09:42:53.340Z,9.20
2018-12-31T09:45:22.787Z,9.20
2018-12-31T09:47:52.361Z,9.20
2018-12-31T09:50:21.836Z,9.20
2018-12-31T09:52:52.646Z,9.20
2018-12-31T09:55:22.156Z,9.30
2018-12-31T09:57:51.573Z,9.30
2018-12-31T10:00:21.053Z,9.30
2018-12-31T10:02:53.710Z,9.40
2018-12-31T10:05:24.233Z,9.40
2018-12-31T10:07:54.683Z,9.40
2018-12-31T10:10:32.259Z,9.40
2018-12-31T10:13:01.708Z,9.40
2018-12-31T10:15:31.316Z,9.40
2018-12-31T10:18:01.793Z,9.40
2018-12-31T10:20:31.300Z,9.30
2018-12-31T10:23:00.804Z,9.30
2018-12-31T10:25:31.248Z,9.30
2018-12-31T10:28:01.682Z,9.30
2018-12-31T10:30:33.188Z,9.30
2018-12-31T10:33:03.718Z,9.20
2018-12-31T10:35:36.576Z,9.20
2018-12-31T10:38:06.067Z,9.20
2018-12-31T10:40:35.513Z,9.30
2018-12-31T10:43:04.980Z,9.30
2018-12-31T10:45:34.406Z,9.20
2018-12-31T10:48:03.847Z,9.20
2018-12-31T10:50:33.381Z,9.30
2018-12-31T10:53:02.809Z,9.30
2018-12-31T10:55:32.283Z,9.30
2018-12-31T10:58:02.794Z,9.30
2018-12-31T11:00:33.373Z,9.30
2018-12-31T11:03:02.849Z,9.30
2018-12-31T11:05:32.330Z,9.30
2018-12-31T11:08:02.776Z,9.40
2018-12-31T11:10:33.337Z,9.40
2018-12-31T11:13:04.042Z,9.40
2018-12-31T11:15:34.539Z,9.40
2018-12-31T11:18:06.158Z,9.40
2018-12-31T11:20:36.663Z,9.40
2018-12-31T11:23:06.419Z,9.40
2018-12-31T11:25:37.717Z,9.40
2018-12-31T11:28:08.112Z,9.50
2018-12-31T11:30:38.591Z,9.40
2018-12-31T11:33:09.032Z,9.40
2018-12-31T11:35:38.688Z,9.50
2018-12-31T11:38:09.233Z,9.50
2018-12-31T11:40:38.763Z,9.50
2018-12-31T11:43:08.268Z,9.40
2018-12-31T11:45:37.877Z,9.40
2018-12-31T11:48:07.625Z,9.40
2018-12-31T11:50:39.217Z,9.40
2018-12-31T11:53:08.839Z,9.40
2018-12-31T11:55:38.352Z,9.40
2018-12-31T11:58:07.768Z,9.40
2018-12-31T12:00:38.265Z,9.40
2018-12-31T12:03:07.933Z,9.40
2018-12-31T12:05:48.432Z,9.40
2018-12-31T12:08:17.957Z,9.50
2018-12-31T12:10:50.718Z,9.40
2018-12-31T12:13:28.015Z,9.50
2018-12-31T12:16:00.591Z,9.50
2018-12-31T12:18:30.140Z,9.50
2018-12-31T12:21:00.686Z,9.50
2018-12-31T12:23:32.156Z,9.50
2018-12-31T12:26:01.728Z,9.50
2018-12-31T12:28:31.202Z,9.50
2018-12-31T12:31:02.677Z,9.50
2018-12-31T12:33:32.163Z,9.50
2018-12-31T12:36:01.659Z,9.50
2018-12-31T12:38:35.375Z,9.50
2018-12-31T12:41:05.937Z,9.50
2018-12-31T12:43:35.345Z,9.50
2018-12-31T12:46:04.872Z,9.50
2018-12-31T12:48:36.329Z,9.50
2018-12-31T12:51:07.157Z,9.40
2018-12-31T12:53:36.589Z,9.40
2018-12-31T12:56:14.049Z,9.50
2018-12-31T12:58:43.670Z,9.40
2018-12-31T13:01:13.179Z,9.50
2018-12-31T13:03:42.710Z,9.50
2018-12-31T13:06:18.078Z,9.50
2018-12-31T13:08:49.787Z,9.50
2018-12-31T13:11:19.322Z,9.50
2018-12-31T13:13:49.883Z,9.50
2018-12-31T13:16:19.433Z,9.50
2018-12-31T13:18:49.920Z,9.50
2018-12-31T13:21:27.505Z,9.50
2018-12-31T13:23:56.894Z,9.50
2018-12-31T13:26:28.474Z,9.50
2018-12-31T13:28:57.940Z,9.40
2018-12-31T13:31:27.455Z,9.50
2018-12-31T13:34:01.089Z,9.50
2018-12-31T13:36:30.625Z,9.50
2018-12-31T13:39:06.671Z,9.50
2018-12-31T13:41:38.178Z,9.50
2018-12-31T13:44:07.947Z,9.50
2018-12-31T13:46:43.488Z,9.50
2018-12-31T13:49:12.877Z,9.60
2018-12-31T13:51:42.351Z,9.50
2018-12-31T13:54:11.879Z,9.60
2018-12-31T13:56:41.420Z,9.60
2018-12-31T13:59:11.987Z,9.60
2018-12-31T14:01:41.520Z,9.60
2018-12-31T14:04:17.909Z,9.60
2018-12-31T14:06:47.460Z,9.60
2018-12-31T14:09:18.003Z,9.60
2018-12-31T14:11:48.531Z,9.60
2018-12-31T14:14:19.961Z,9.60
2018-12-31T14:16:50.444Z,9.60
2018-12-31T14:19:19.946Z,9.60
2018-12-31T14:21:49.551Z,9.70
2018-12-31T14:24:19.713Z,9.60
2018-12-31T14:26:50.469Z,9.60
2018-12-31T14:29:21.125Z,9.60
2018-12-31T14:31:50.535Z,9.60
2018-12-31T14:34:25.832Z,9.60
2018-12-31T14:36:55.442Z,9.60
2018-12-31T14:39:25.903Z,9.60
2018-12-31T14:41:59.615Z,9.60
2018-12-31T14:44:29.148Z,9.60
2018-12-31T14:46:58.658Z,9.60
2018-12-31T14:49:28.050Z,9.50
2018-12-31T14:51:59.600Z,9.60
2018-12-31T14:54:30.051Z,9.60
2018-12-31T14:56:59.490Z,9.60
2018-12-31T14:59:29.017Z,9.50
2018-12-31T15:02:04.616Z,9.50
2018-12-31T15:04:48.251Z,9.50
2018-12-31T15:07:23.668Z,9.50
2018-12-31T15:09:54.122Z,9.50
2018-12-31T15:12:24.550Z,9.50
2018-12-31T15:14:54.107Z,9.50
2018-12-31T15:17:23.785Z,9.40
2018-12-31T15:20:02.339Z,9.40
2018-12-31T15:22:34.014Z,9.40
2018-12-31T15:25:03.539Z,9.40
2018-12-31T15:27:42.233Z,9.40
2018-12-31T15:30:11.873Z,9.40
2018-12-31T15:32:48.311Z,9.40
2018-12-31T15:35:19.881Z,9.40
2018-12-31T15:37:58.199Z,9.40
2018-12-31T15:40:29.726Z,9.30
2018-12-31T15:43:06.003Z,9.40
2018-12-31T15:45:35.942Z,9.40
2018-12-31T15:48:14.627Z,9.40
2018-12-31T15:50:52.076Z,9.40
2018-12-31T15:53:23.481Z,9.40
2018-12-31T15:55:53.013Z,9.30
2018-12-31T15:58:22.400Z,9.30
2018-12-31T16:00:51.906Z,9.30
2018-12-31T16:03:22.325Z,9.30
2018-12-31T16:05:52.900Z,9.20
2018-12-31T16:08:22.410Z,9.30
2018-12-31T16:10:51.921Z,9.30
2018-12-31T16:13:22.465Z,9.20
2018-12-31T16:15:54.028Z,9.20
2018-12-31T16:18:23.843Z,9.30
2018-12-31T16:20:53.326Z,9.30
2018-12-31T16:23:24.871Z,9.30
2018-12-31T16:26:00.276Z,9.30
2018-12-31T16:28:29.768Z,9.30
2018-12-31T16:31:00.309Z,9.30
2018-12-31T16:33:30.779Z,9.20
2018-12-31T16:36:02.320Z,9.20
2018-12-31T16:38:33.814Z,9.20
2018-12-31T16:41:10.098Z,9.20
2018-12-31T16:43:42.680Z,9.20
2018-12-31T16:46:20.397Z,9.20
2018-12-31T16:48:50.902Z,9.10
2018-12-31T16:51:20.966Z,9.10
2018-12-31T16:53:58.512Z,9.20
2018-12-31T16:56:27.989Z,9.10
2018-12-31T16:59:04.762Z,9.10
2018-12-31T17:01:34.917Z,9.20
2018-12-31T17:04:06.524Z,9.20
2018-12-31T17:06:45.987Z,9.20
2018-12-31T17:09:18.969Z,9.20
2018-12-31T17:11:49.495Z,9.20
2018-12-31T17:14:18.986Z,9.20
2018-12-31T17:16:51.588Z,9.20
2018-12-31T17:19:22.117Z,9.20
2018-12-31T17:21:51.664Z,9.20
2018-12-31T17:24:22.236Z,9.10
2018-12-31T17:26:51.732Z,9.10
2018-12-31T17:29:21.206Z,9.10
2018-12-31T17:31:50.739Z,9.10
2018-12-31T17:34:27.302Z,9.00
2018-12-31T17:36:56.867Z,9.00
2018-12-31T17:39:27.363Z,9.10
2018-12-31T17:41:56.902Z,9.00
2018-12-31T17:44:27.421Z,9.10
2018-12-31T17:46:57.046Z,9.10
2018-12-31T17:49:26.462Z,9.10
2018-12-31T17:51:56.109Z,9.10
2018-12-31T17:54:25.629Z,9.10
2018-12-31T17:56:58.189Z,9.10
2018-12-31T17:59:27.690Z,9.00
2018-12-31T18:02:15.755Z,9.00
2018-12-31T18:04:45.387Z,9.10
2018-12-31T18:07:14.868Z,9.00
2018-12-31T18:09:44.394Z,9.00
2018-12-31T18:12:14.851Z,9.00
2018-12-31T18:15:01.440Z,9.00
2018-12-31T18:17:30.846Z,9.00
2018-12-31T18:20:12.338Z,9.00
2018-12-31T18:22:41.767Z,9.00
2018-12-31T18:25:15.346Z,9.00
2018-12-31T18:27:50.851Z,9.00
2018-12-31T18:30:22.370Z,9.00
2018-12-31T18:32:51.846Z,9.00
2018-12-31T18:35:33.642Z,9.00
2018-12-31T18:38:04.131Z,9.00
2018-12-31T18:40:35.971Z,9.00
2018-12-31T18:43:06.031Z,9.00
2018-12-31T18:45:35.539Z,8.90
2018-12-31T18:48:05.038Z,9.00
2018-12-31T18:50:34.591Z,9.00
2018-12-31T18:53:10.459Z,9.00
2018-12-31T18:55:39.942Z,8.90
2018-12-31T18:58:09.505Z,8.90
2018-12-31T19:00:45.102Z,8.90
2018-12-31T19:03:14.641Z,8.90
2018-12-31T19:05:44.405Z,8.90
2018-12-31T19:08:13.823Z,8.90
2018-12-31T19:10:43.297Z,9.00
2018-12-31T19:13:27.037Z,8.90
2018-12-31T19:15:57.085Z,8.90
2018-12-31T19:18:26.740Z,8.80
2018-12-31T19:20:56.239Z,8.80
2018-12-31T19:23:25.692Z,8.80
2018-12-31T19:26:00.347Z,8.80
2018-12-31T19:28:30.808Z,8.70
2018-12-31T19:31:01.275Z,8.70
2018-12-31T19:33:30.796Z,8.70
2018-12-31T19:36:09.920Z,8.80
2018-12-31T19:38:39.434Z,8.70
2018-12-31T19:41:08.903Z,8.70
2018-12-31T19:43:38.334Z,8.70
2018-12-31T19:46:07.782Z,8.70
2018-12-31T19:48:37.270Z,8.70
2018-12-31T19:51:06.719Z,8.70
2018-12-31T19:54:07.322Z,8.70
2018-12-31T19:56:38.844Z,8.70
2018-12-31T19:59:09.380Z,8.70
2018-12-31T20:01:46.704Z,8.70
2018-12-31T20:04:17.163Z,8.70
2018-12-31T20:06:46.625Z,8.70
2018-12-31T20:09:17.292Z,8.70
2018-12-31T20:11:47.847Z,8.70
2018-12-31T20:14:18.374Z,8.70
2018-12-31T20:16:56.036Z,8.60
2018-12-31T20:19:25.481Z,8.60
2018-12-31T20:21:55.937Z,8.60
2018-12-31T20:24:43.770Z,8.60
2018-12-31T20:27:28.685Z,8.60
2018-12-31T20:30:15.397Z,8.50
2018-12-31T20:32:44.846Z,8.60
2018-12-31T20:35:15.774Z,8.60
2018-12-31T20:37:46.287Z,8.60
2018-12-31T20:40:15.804Z,8.60
2018-12-31T20:42:45.314Z,8.60
2018-12-31T20:45:15.763Z,8.60
2018-12-31T20:47:45.239Z,8.60
2018-12-31T20:50:14.709Z,8.60
2018-12-31T20:52:44.098Z,8.60
2018-12-31T20:55:13.647Z,8.60
2018-12-31T20:57:43.187Z,8.60
2018-12-31T21:00:12.639Z,8.60
2018-12-31T21:02:46.226Z,8.60
2018-12-31T21:05:16.720Z,8.60
2018-12-31T21:07:46.196Z,8.60
2018-12-31T21:10:15.693Z,8.60
2018-12-31T21:12:51.387Z,8.60
2018-12-31T21:15:21.856Z,8.60
2018-12-31T21:17:51.373Z,8.60
2018-12-31T21:20:20.973Z,8.60
2018-12-31T21:22:50.508Z,8.60
2018-12-31T21:25:29.377Z,8.60
2018-12-31T21:28:01.882Z,8.60
2018-12-31T21:30:42.899Z,8.60
2018-12-31T21:33:12.514Z,8.60
2018-12-31T21:35:41.960Z,8.60
2018-12-31T21:38:11.503Z,8.60
2018-12-31T21:40:56.201Z,8.60
2018-12-31T21:43:25.934Z,8.60
2018-12-31T21:46:03.371Z,8.60
2018-12-31T21:48:48.251Z,8.60
2018-12-31T21:51:22.340Z,8.60
2018-12-31T21:53:51.717Z,8.60
2018-12-31T21:56:24.356Z,8.60
2018-12-31T21:59:07.092Z,8.60
2018-12-31T22:01:36.650Z,8.70
2018-12-31T22:04:12.355Z,8.70
2018-12-31T22:06:45.920Z,8.60
2018-12-31T22:09:21.358Z,8.60
2018-12-31T22:11:51.779Z,8.70
2018-12-31T22:14:34.024Z,8.70
2018-12-31T22:17:08.530Z,8.60
2018-12-31T22:19:55.620Z,8.60
2018-12-31T22:22:37.450Z,8.50
2018-12-31T22:25:08.282Z,8.40
2018-12-31T22:27:39.901Z,8.40
2018-12-31T22:30:10.323Z,8.30
2018-12-31T22:32:41.786Z,8.30
2018-12-31T22:35:11.292Z,8.30
2018-12-31T22:37:40.734Z,8.20
2018-12-31T22:40:10.246Z,8.30
2018-12-31T22:42:39.715Z,8.30
2018-12-31T22:45:10.098Z,8.20
2018-12-31T22:47:40.517Z,8.20
2018-12-31T22:50:16.039Z,8.20
2018-12-31T22:52:46.565Z,8.20
2018-12-31T22:55:16.084Z,8.20
2018-12-31T22:57:45.567Z,8.20
2018-12-31T23:00:16.058Z,8.20
2018-12-31T23:02:51.506Z,8.20
2018-12-31T23:05:28.722Z,8.20
2018-12-31T23:08:01.306Z,8.20
2018-12-31T23:10:34.443Z,8.20
2018-12-31T23:13:03.891Z,8.20
2018-12-31T23:15:35.589Z,8.20
2018-12-31T23:18:11.306Z,8.20
2018-12-31T23:20:41.142Z,8.20
2018-12-31T23:23:11.639Z,8.20
2018-12-31T23:25:50.071Z,8.10
2018-12-31T23:28:31.848Z,8.10
2018-12-31T23:31:01.571Z,8.10
2018-12-31T23:33:31.186Z,8.00
2018-12-31T23:36:07.713Z,8.00
2018-12-31T23:38:46.276Z,8.00
2018-12-31T23:41:16.782Z,8.00
2018-12-31T23:43:55.569Z,7.90
2018-12-31T23:46:27.060Z,8.00
2018-12-31T23:48:57.568Z,7.90
2018-12-31T23:51:28.007Z,7.90
2018-12-31T23:53:57.447Z,7.90
2018-12-31T23:56:42.228Z,7.90
2018-12-31T23:59:14.079Z,7.90
